Time;durP1;ratioP1;P1;durP2;ratioP2;P2;SDS_P1;SDS_P2;PMS_P1;PMS_P2;Temp;Humidity;BMP_temperature;BMP_pressure;BME280_temperature;BME280_humidity;BME280_pressure;Samples;Min_cycle;Max_cycle;Signal;HPM_P1;HPM_P2
2021/06/20 00:01:03;;;;;;;12.15;4.63;;;28.00;93.00;;;;;;5074430;28;20063;-78
2021/06/20 00:03:28;;;;;;;13.77;4.70;;;28.00;93.10;;;;;;5073373;28;20052;-78
2021/06/20 00:05:59;;;;;;;11.90;4.53;;;27.90;93.40;;;;;;5074417;28;20546;-76
2021/06/20 00:08:25;;;;;;;11.63;4.45;;;27.90;93.60;;;;;;5072928;28;20493;-77
2021/06/20 00:10:52;;;;;;;9.43;4.57;;;27.80;93.80;;;;;;5073239;28;20040;-77
2021/06/20 00:13:19;;;;;;;10.60;4.55;;;27.70;94.10;;;;;;5074289;28;20032;-78
2021/06/20 00:15:48;;;;;;;12.68;4.68;;;27.70;94.20;;;;;;5074403;28;20032;-77
2021/06/20 00:18:15;;;;;;;10.88;4.70;;;27.60;94.50;;;;;;5073738;28;20033;-78
2021/06/20 00:20:45;;;;;;;13.63;5.10;;;27.60;94.70;;;;;;5073957;28;20032;-77
2021/06/20 00:23:11;;;;;;;13.70;5.27;;;27.60;94.90;;;;;;5074242;28;20035;-78
2021/06/20 00:25:38;;;;;;;10.13;4.85;;;27.40;95.20;;;;;;5074015;28;20373;-77
2021/06/20 00:28:05;;;;;;;9.45;4.32;;;27.60;95.10;;;;;;5072640;28;20366;-77
2021/06/20 00:30:34;;;;;;;9.23;4.88;;;27.60;95.00;;;;;;5072529;28;20124;-78
2021/06/20 00:33:00;;;;;;;10.15;5.15;;;27.60;95.10;;;;;;5073822;28;20032;-78
2021/06/20 00:35:26;;;;;;;9.35;4.65;;;27.60;95.00;;;;;;5073208;28;20028;-77
2021/06/20 00:37:52;;;;;;;12.40;5.30;;;27.60;95.20;;;;;;5073750;28;20025;-76
2021/06/20 00:40:20;;;;;;;12.50;5.53;;;27.50;95.30;;;;;;5074769;28;20393;-77
2021/06/20 00:42:47;;;;;;;14.52;5.03;;;27.50;95.40;;;;;;5073712;28;20033;-77
2021/06/20 00:45:17;;;;;;;11.48;4.85;;;27.50;95.40;;;;;;5073458;28;20387;-79
2021/06/20 00:47:44;;;;;;;11.25;4.78;;;27.60;95.50;;;;;;5073550;28;20024;-78
2021/06/20 00:50:12;;;;;;;13.77;5.82;;;27.70;95.30;;;;;;5072547;28;20481;-78
2021/06/20 00:52:40;;;;;;;9.45;5.32;;;27.70;95.20;;;;;;5073037;28;20036;-77
2021/06/20 00:55:08;;;;;;;18.35;6.07;;;27.80;95.30;;;;;;5072097;28;20501;-77
2021/06/20 00:57:34;;;;;;;11.48;4.85;;;27.80;95.30;;;;;;5073094;28;20036;-77
2021/06/20 01:00:02;;;;;;;13.35;5.25;;;27.80;95.30;;;;;;5055512;28;20043;-79
2021/06/20 01:02:28;;;;;;;11.10;5.13;;;27.90;95.60;;;;;;5071832;28;20044;-77
2021/06/20 01:04:55;;;;;;;16.70;5.45;;;27.90;95.70;;;;;;5073541;28;20389;-79
2021/06/20 01:07:23;;;;;;;19.80;6.05;;;27.90;95.90;;;;;;5071989;28;20082;-78
2021/06/20 01:09:51;;;;;;;21.33;5.90;;;27.90;96.10;;;;;;5073287;28;20595;-77
2021/06/20 01:12:20;;;;;;;13.35;5.38;;;27.90;96.40;;;;;;5071598;28;20088;-78
2021/06/20 01:14:47;;;;;;;14.25;5.93;;;27.80;96.60;;;;;;5073170;28;20047;-79
2021/06/20 01:17:15;;;;;;;18.38;5.40;;;27.80;96.90;;;;;;5073200;28;20551;-69
2021/06/20 01:19:43;;;;;;;18.45;5.50;;;27.70;97.20;;;;;;5072008;28;20024;-79
2021/06/20 01:22:28;;;;;;;11.77;5.35;;;27.70;97.40;;;;;;5072855;28;20123;-77
2021/06/20 01:25:09;;;;;;;18.48;6.07;;;27.70;97.60;;;;;;5073166;28;20028;-77
2021/06/20 01:27:41;;;;;;;18.50;5.97;;;27.70;97.70;;;;;;5072831;28;20820;-78
2021/06/20 01:30:19;;;;;;;13.27;6.00;;;27.60;98.10;;;;;;5072543;28;20374;-77
2021/06/20 01:32:45;;;;;;;16.00;6.32;;;27.60;98.30;;;;;;5072757;28;20500;-76
2021/06/20 01:35:13;;;;;;;17.58;6.03;;;27.60;98.40;;;;;;5075777;28;20094;-77
2021/06/20 01:37:39;;;;;;;19.05;6.32;;;27.50;98.10;;;;;;5079283;28;20468;-77
2021/06/20 01:40:10;;;;;;;17.70;5.60;;;27.40;98.10;;;;;;5082074;28;20036;-75
2021/06/20 01:42:40;;;;;;;18.45;5.28;;;27.50;98.00;;;;;;5081393;28;20071;-77
2021/06/20 01:45:08;;;;;;;20.30;6.10;;;27.40;98.20;;;;;;5081526;28;20021;-77
2021/06/20 01:47:35;;;;;;;21.23;5.03;;;27.30;98.00;;;;;;5074526;28;20314;-76
2021/06/20 01:50:09;;;;;;;12.82;5.10;;;27.20;98.00;;;;;;5073103;28;20078;-77
2021/06/20 01:52:35;;;;;;;19.65;5.57;;;27.20;98.00;;;;;;5071337;28;20035;-78
2021/06/20 01:55:02;;;;;;;16.83;5.13;;;27.20;98.00;;;;;;5072424;28;20040;-77
2021/06/20 01:57:30;;;;;;;16.58;5.07;;;27.10;98.20;;;;;;5072599;28;20021;-77
2021/06/20 01:59:59;;;;;;;14.00;4.55;;;27.10;98.30;;;;;;5071564;28;20060;-77
2021/06/20 02:02:28;;;;;;;22.02;4.25;;;27.00;98.30;;;;;;5072458;28;20028;-78
2021/06/20 02:04:55;;;;;;;23.80;5.20;;;26.90;98.30;;;;;;5071390;28;20027;-78
2021/06/20 02:07:23;;;;;;;21.08;5.68;;;26.80;98.30;;;;;;5072384;28;20097;-77
2021/06/20 02:09:50;;;;;;;16.00;4.45;;;26.80;97.00;;;;;;5071084;28;20476;-77
2021/06/20 02:12:16;;;;;;;15.25;4.20;;;26.70;97.30;;;;;;5072475;28;20029;-77
2021/06/20 02:14:43;;;;;;;20.92;4.50;;;26.70;97.50;;;;;;5071006;28;20036;-78
2021/06/20 02:17:25;;;;;;;11.55;3.67;;;26.70;97.70;;;;;;5072131;28;20046;-77
2021/06/20 02:20:01;;;;;;;12.65;4.10;;;26.60;97.20;;;;;;5072291;28;20036;-78
2021/06/20 02:22:28;;;;;;;12.30;3.70;;;26.70;97.10;;;;;;5071107;28;20031;-77
2021/06/20 02:24:55;;;;;;;18.05;4.22;;;26.50;97.40;;;;;;5071806;28;20032;-77
2021/06/20 02:27:21;;;;;;;11.23;3.85;;;26.40;97.20;;;;;;5071868;28;20553;-78
2021/06/20 02:29:51;;;;;;;17.92;3.83;;;26.40;97.40;;;;;;5054140;28;20430;-78
2021/06/20 02:32:17;;;;;;;11.70;3.90;;;26.50;97.40;;;;;;5072061;28;20099;-77
2021/06/20 02:34:44;;;;;;;17.42;3.72;;;26.50;97.60;;;;;;5071965;28;20036;-79
2021/06/20 02:37:11;;;;;;;17.75;3.92;;;26.40;97.80;;;;;;5072166;28;20029;-78
2021/06/20 02:39:38;;;;;;;15.88;4.25;;;26.40;98.10;;;;;;5072023;28;20033;-77
2021/06/20 02:42:06;;;;;;;17.95;5.00;;;26.40;98.00;;;;;;5070976;28;20031;-77
2021/06/20 02:44:32;;;;;;;12.38;3.25;;;26.40;98.20;;;;;;5087662;28;20121;-77
2021/06/20 02:46:59;;;;;;;16.73;4.45;;;26.40;98.00;;;;;;5072201;28;20043;-78
2021/06/20 02:49:27;;;;;;;11.07;5.10;;;26.40;98.20;;;;;;5071829;28;20028;-77
2021/06/20 02:51:54;;;;;;;15.15;3.90;;;26.30;98.10;;;;;;5072129;28;20537;-78
2021/06/20 02:54:20;;;;;;;15.20;3.38;;;26.30;98.20;;;;;;5070722;28;20462;-78
2021/06/20 02:56:46;;;;;;;10.65;3.17;;;26.20;98.10;;;;;;5071658;28;20032;-76
2021/06/20 02:59:12;;;;;;;15.65;3.50;;;26.10;97.90;;;;;;5071943;28;20027;-78
2021/06/20 03:01:38;;;;;;;12.45;3.10;;;26.10;97.60;;;;;;5071391;28;20028;-78
2021/06/20 03:04:05;;;;;;;7.28;2.55;;;26.00;97.10;;;;;;5070393;28;20047;-78
2021/06/20 03:06:31;;;;;;;15.30;2.80;;;25.90;97.20;;;;;;5071498;28;20035;-77
2021/06/20 03:08:57;;;;;;;9.75;3.20;;;25.90;97.00;;;;;;5070273;28;20028;-77
2021/06/20 03:11:23;;;;;;;10.77;2.53;;;25.80;96.90;;;;;;5071815;28;20033;-77
2021/06/20 03:13:51;;;;;;;11.98;2.78;;;25.80;96.90;;;;;;5070259;28;20025;-77
2021/06/20 03:16:18;;;;;;;8.32;2.80;;;25.80;97.10;;;;;;5071797;28;20036;-78
2021/06/20 03:18:44;;;;;;;11.07;2.80;;;25.80;97.80;;;;;;5075280;28;20020;-78
2021/06/20 03:21:11;;;;;;;12.90;3.08;;;25.70;98.10;;;;;;5075472;28;20036;-77
2021/06/20 03:23:37;;;;;;;13.23;2.50;;;25.60;98.40;;;;;;5075245;28;20056;-78
2021/06/20 03:26:03;;;;;;;13.10;3.53;;;25.60;98.30;;;;;;5075339;28;20125;-78
2021/06/20 03:28:30;;;;;;;14.82;2.63;;;25.60;98.50;;;;;;5075327;28;20039;-78
2021/06/20 03:30:56;;;;;;;6.15;2.50;;;25.50;97.70;;;;;;5074668;28;20476;-78
2021/06/20 03:33:22;;;;;;;11.85;2.50;;;25.60;97.80;;;;;;5074070;28;20048;-78
2021/06/20 03:35:48;;;;;;;8.57;2.63;;;25.60;96.90;;;;;;5075002;28;20028;-77
2021/06/20 03:38:14;;;;;;;10.40;1.98;;;25.50;97.30;;;;;;5075093;28;20039;-77
2021/06/20 03:40:40;;;;;;;8.35;2.05;;;25.50;95.90;;;;;;5074937;28;20033;-79
2021/06/20 03:43:05;;;;;;;12.90;2.70;;;25.50;95.90;;;;;;5074693;28;20082;-78
2021/06/20 03:45:31;;;;;;;10.60;2.38;;;25.60;96.60;;;;;;5073588;28;20530;-78
2021/06/20 03:47:57;;;;;;;9.93;2.78;;;25.40;96.80;;;;;;5056965;28;20028;-79
2021/06/20 03:50:25;;;;;;;8.52;2.25;;;25.50;96.50;;;;;;5074789;28;20111;-78
2021/06/20 03:52:51;;;;;;;7.10;2.20;;;25.40;96.60;;;;;;5074957;28;20024;-78
2021/06/20 03:55:17;;;;;;;7.15;1.92;;;25.40;96.60;;;;;;5073534;28;20043;-78
2021/06/20 03:57:42;;;;;;;8.73;2.20;;;25.40;96.60;;;;;;5074674;28;20040;-78
2021/06/20 04:00:12;;;;;;;7.38;2.13;;;25.40;96.70;;;;;;5073341;28;20036;-78
2021/06/20 04:02:38;;;;;;;9.25;2.17;;;25.40;96.30;;;;;;5073317;28;20067;-61
2021/06/20 04:05:06;;;;;;;9.55;2.22;;;25.30;96.30;;;;;;5074545;28;20074;-61
2021/06/20 04:07:34;;;;;;;10.20;2.58;;;25.40;96.30;;;;;;5074425;28;20024;-61
2021/06/20 04:09:59;;;;;;;6.53;1.63;;;25.40;96.00;;;;;;5056435;28;20113;-61
2021/06/20 04:12:25;;;;;;;5.88;1.85;;;25.20;96.20;;;;;;5074504;28;20480;-61
2021/06/20 04:14:51;;;;;;;6.25;1.75;;;25.20;96.00;;;;;;5073916;28;20040;-61
2021/06/20 04:17:17;;;;;;;5.63;2.20;;;25.10;96.30;;;;;;5072894;28;20127;-61
2021/06/20 04:19:42;;;;;;;6.88;1.60;;;25.20;96.30;;;;;;5074111;28;20021;-61
2021/06/20 04:22:08;;;;;;;4.53;1.40;;;25.10;96.00;;;;;;5074395;28;20029;-61
2021/06/20 04:24:34;;;;;;;9.95;1.80;;;25.00;95.80;;;;;;5074095;28;20024;-61
2021/06/20 04:27:00;;;;;;;5.47;1.50;;;25.00;95.90;;;;;;5073595;28;20029;-60
2021/06/20 04:29:25;;;;;;;7.93;1.58;;;24.90;95.80;;;;;;5067101;28;20036;-61
2021/06/20 04:31:51;;;;;;;4.55;1.38;;;24.90;96.00;;;;;;5071545;28;20055;-64
2021/06/20 04:34:17;;;;;;;5.15;1.30;;;24.90;95.90;;;;;;5073969;28;20028;-61
2021/06/20 04:36:43;;;;;;;4.90;1.45;;;24.90;95.90;;;;;;5073607;28;20437;-62
2021/06/20 04:39:09;;;;;;;6.22;2.13;;;24.90;96.00;;;;;;5073773;28;20033;-62
2021/06/20 04:41:40;;;;;;;6.82;1.60;;;24.90;96.00;;;;;;5073672;28;20534;-59
2021/06/20 04:44:42;;;;;;;5.85;1.48;;;24.90;96.40;;;;;;5073854;28;20024;-56
2021/06/20 04:46:52;;;;;;;7.18;2.05;;;24.80;96.40;;;;;;5073133;28;20119;-58
2021/06/20 04:49:19;;;;;;;6.07;1.30;;;24.80;96.60;;;;;;5073642;28;20032;-57
2021/06/20 04:51:46;;;;;;;5.60;1.88;;;24.90;96.70;;;;;;5071978;28;20401;-61
2021/06/20 04:54:13;;;;;;;6.53;1.90;;;25.00;96.60;;;;;;5073471;28;20537;-59
2021/06/20 04:56:40;;;;;;;4.90;1.80;;;24.90;96.70;;;;;;5073178;28;20036;-60
2021/06/20 04:59:07;;;;;;;4.28;1.48;;;24.90;96.80;;;;;;5073589;28;20058;-64
2021/06/20 05:01:34;;;;;;;6.18;1.70;;;24.80;97.10;;;;;;5073014;28;20032;-63
2021/06/20 05:04:00;;;;;;;2.90;1.27;;;24.90;97.00;;;;;;5073565;28;20028;-62
2021/06/20 05:06:26;;;;;;;5.25;1.60;;;24.90;97.30;;;;;;5072346;28;20115;-60
2021/06/20 05:08:51;;;;;;;7.28;1.80;;;24.90;97.10;;;;;;5073206;28;20039;-62
2021/06/20 05:11:17;;;;;;;4.43;1.52;;;24.60;97.60;;;;;;5072996;28;20040;-62
2021/06/20 05:13:43;;;;;;;5.95;1.80;;;24.50;97.70;;;;;;5073146;28;20028;-60
2021/06/20 05:16:09;;;;;;;2.95;1.15;;;24.50;98.10;;;;;;5073082;28;20039;-60
2021/06/20 05:18:35;;;;;;;7.75;2.10;;;24.60;98.20;;;;;;5072805;28;20024;-59
2021/06/20 05:21:01;;;;;;;5.63;2.15;;;24.40;98.60;;;;;;5073024;28;20027;-60
2021/06/20 05:23:27;;;;;;;4.50;1.65;;;24.40;98.90;;;;;;5072714;28;20491;-59
2021/06/20 05:25:53;;;;;;;6.70;1.65;;;24.30;99.30;;;;;;5071460;28;20111;-56
2021/06/20 05:28:19;;;;;;;4.43;1.50;;;24.40;98.90;;;;;;5073027;28;20457;-60
2021/06/20 05:30:46;;;;;;;4.82;1.50;;;24.50;98.90;;;;;;5072299;28;20056;-62
2021/06/20 05:33:14;;;;;;;4.75;1.50;;;24.40;98.50;;;;;;5068112;28;20051;-66
2021/06/20 05:35:40;;;;;;;4.07;1.60;;;24.40;98.50;;;;;;5052672;28;20075;-63
2021/06/20 05:38:06;;;;;;;10.82;1.60;;;24.40;98.80;;;;;;5052786;28;20056;-61
2021/06/20 05:40:34;;;;;;;7.90;1.90;;;24.30;98.70;;;;;;5051918;28;20036;-69
2021/06/20 05:43:00;;;;;;;3.60;1.40;;;24.30;98.80;;;;;;5067042;28;20029;-68
2021/06/20 05:45:26;;;;;;;5.20;1.60;;;24.20;99.00;;;;;;5052543;28;20625;-69
2021/06/20 05:47:52;;;;;;;8.77;1.98;;;24.20;99.50;;;;;;5066541;28;20501;-68
2021/06/20 05:50:18;;;;;;;5.85;1.95;;;24.20;99.20;;;;;;5052658;28;20481;-70
2021/06/20 05:52:44;;;;;;;6.78;1.83;;;24.10;99.50;;;;;;5067575;28;20025;-69
2021/06/20 05:55:09;;;;;;;3.50;1.75;;;24.20;99.50;;;;;;5052274;28;20094;-69
2021/06/20 05:57:35;;;;;;;7.60;2.22;;;24.10;99.60;;;;;;5051048;28;20029;-69
2021/06/20 06:00:04;;;;;;;6.05;2.05;;;24.00;99.90;;;;;;5052028;28;20435;-69
2021/06/20 06:02:30;;;;;;;6.07;1.80;;;24.00;99.90;;;;;;5052441;28;20029;-69
2021/06/20 06:04:56;;;;;;;6.55;2.22;;;24.00;99.90;;;;;;5052223;28;20036;-69
2021/06/20 06:07:22;;;;;;;5.05;1.67;;;24.00;99.90;;;;;;5067579;28;20033;-69
2021/06/20 06:09:47;;;;;;;5.47;1.40;;;24.00;99.90;;;;;;5052231;28;20035;-69
2021/06/20 06:12:13;;;;;;;6.43;1.60;;;24.10;99.80;;;;;;5052354;28;20041;-70
2021/06/20 06:14:39;;;;;;;7.55;1.95;;;24.10;99.90;;;;;;5051910;28;20036;-69
2021/06/20 06:17:05;;;;;;;5.30;1.92;;;24.10;99.90;;;;;;5052345;28;20045;-69
2021/06/20 06:19:30;;;;;;;7.68;2.08;;;24.20;99.90;;;;;;5050764;28;20029;-69
2021/06/20 06:21:56;;;;;;;5.45;1.75;;;24.30;99.80;;;;;;5052077;28;20040;-69
2021/06/20 06:24:22;;;;;;;7.15;2.00;;;24.20;99.90;;;;;;5052252;28;20135;-69
2021/06/20 06:26:48;;;;;;;7.32;1.83;;;24.20;99.90;;;;;;5067585;28;20566;-69
2021/06/20 06:29:13;;;;;;;6.90;2.50;;;24.40;99.90;;;;;;5067331;28;20389;-69
2021/06/20 06:31:41;;;;;;;6.45;1.60;;;24.30;99.50;;;;;;5051507;28;20040;-69
2021/06/20 06:34:08;;;;;;;3.85;1.70;;;24.30;99.80;;;;;;5051827;28;20033;-69
2021/06/20 06:36:34;;;;;;;5.50;1.73;;;24.40;99.50;;;;;;5050459;28;20033;-70
2021/06/20 06:39:00;;;;;;;6.18;1.83;;;24.30;99.60;;;;;;5051730;28;20108;-69
2021/06/20 06:41:26;;;;;;;5.97;2.03;;;24.30;99.50;;;;;;5051721;28;20045;-69
2021/06/20 06:43:51;;;;;;;7.18;1.90;;;24.30;99.20;;;;;;5051770;28;20512;-69
2021/06/20 06:46:17;;;;;;;6.38;1.83;;;24.20;99.80;;;;;;5050602;28;20075;-68
2021/06/20 06:48:43;;;;;;;5.20;1.90;;;24.40;99.50;;;;;;5051668;28;20061;-69
2021/06/20 06:51:08;;;;;;;3.65;2.03;;;24.40;99.80;;;;;;5053230;28;20029;-68
2021/06/20 06:53:34;;;;;;;6.72;1.60;;;24.20;99.50;;;;;;5055982;28;20385;-69
2021/06/20 06:56:00;;;;;;;5.57;2.10;;;24.50;99.50;;;;;;5055539;28;20033;-69
2021/06/20 06:58:26;;;;;;;7.32;1.73;;;24.40;99.20;;;;;;5055560;28;20067;-69
2021/06/20 07:00:51;;;;;;;7.20;2.30;;;24.50;99.10;;;;;;5055317;28;20059;-70
2021/06/20 07:03:17;;;;;;;5.78;2.63;;;24.50;99.20;;;;;;5070752;28;20029;-70
2021/06/20 07:05:43;;;;;;;3.35;1.60;;;24.50;99.10;;;;;;5055488;28;20470;-70
2021/06/20 07:08:10;;;;;;;5.20;1.58;;;24.50;98.60;;;;;;5055204;28;20457;-69
2021/06/20 07:10:36;;;;;;;3.30;1.88;;;24.30;99.00;;;;;;5054149;28;20122;-69
2021/06/20 07:13:03;;;;;;;7.82;2.00;;;24.50;99.20;;;;;;5055212;28;20060;-69
2021/06/20 07:15:29;;;;;;;8.07;1.88;;;24.40;99.10;;;;;;5055355;28;20041;-69
2021/06/20 07:17:55;;;;;;;8.32;1.80;;;24.50;99.50;;;;;;5070385;28;20039;-69
2021/06/20 07:20:22;;;;;;;9.10;2.05;;;24.40;99.40;;;;;;5054072;28;20083;-69
2021/06/20 07:22:49;;;;;;;4.60;1.92;;;24.50;99.20;;;;;;5055231;28;20037;-70
2021/06/20 07:25:22;;;;;;;8.25;2.05;;;24.50;99.00;;;;;;5053963;28;20104;-69
2021/06/20 07:27:50;;;;;;;6.80;2.05;;;24.60;99.00;;;;;;5070456;28;20036;-69
2021/06/20 07:30:20;;;;;;;11.88;2.53;;;24.60;98.60;;;;;;5054725;28;20103;-70
2021/06/20 07:32:46;;;;;;;4.85;1.50;;;24.50;98.90;;;;;;5069903;28;20124;-69
2021/06/20 07:35:14;;;;;;;7.13;2.15;;;24.40;99.00;;;;;;5070097;28;20044;-69
2021/06/20 07:37:40;;;;;;;4.57;1.70;;;24.50;98.80;;;;;;5070206;28;20394;-70
2021/06/20 07:40:14;;;;;;;9.23;1.65;;;24.50;99.10;;;;;;5070236;28;20064;-70
2021/06/20 07:42:41;;;;;;;5.65;1.67;;;24.70;98.50;;;;;;5070075;28;20029;-70
2021/06/20 07:45:09;;;;;;;4.50;1.63;;;24.80;98.30;;;;;;5070274;28;20028;-69
2021/06/20 07:47:36;;;;;;;9.23;2.70;;;24.90;97.80;;;;;;5054874;28;20029;-70
2021/06/20 07:50:09;;;;;;;10.45;2.13;;;24.70;98.20;;;;;;5054286;28;20033;-69
2021/06/20 07:52:36;;;;;;;6.25;1.77;;;24.70;98.30;;;;;;5053321;28;20112;-70
2021/06/20 07:55:04;;;;;;;4.35;1.90;;;24.80;97.80;;;;;;5054605;28;20049;-69
2021/06/20 07:57:30;;;;;;;5.95;1.92;;;24.80;97.80;;;;;;5053173;28;20021;-69
2021/06/20 07:59:56;;;;;;;5.20;1.85;;;24.80;97.90;;;;;;5054205;28;20089;-69
2021/06/20 08:02:22;;;;;;;7.78;2.40;;;24.90;97.90;;;;;;5053196;28;20060;-69
2021/06/20 08:04:48;;;;;;;9.05;2.05;;;24.90;98.00;;;;;;5069492;28;20032;-70
2021/06/20 08:07:14;;;;;;;7.47;2.10;;;25.10;97.40;;;;;;5054313;28;20055;-69
2021/06/20 08:09:42;;;;;;;7.45;3.20;;;25.30;97.50;;;;;;5052913;28;20116;-70
2021/06/20 08:12:08;;;;;;;5.60;1.77;;;25.40;97.40;;;;;;5054517;28;20103;-70
2021/06/20 08:14:35;;;;;;;4.78;1.70;;;25.60;96.80;;;;;;5069610;28;20036;-69
2021/06/20 08:17:02;;;;;;;6.70;1.85;;;25.70;96.30;;;;;;5053872;28;20074;-69
2021/06/20 08:19:28;;;;;;;3.42;1.55;;;25.50;96.50;;;;;;5053985;28;20104;-70
2021/06/20 08:21:54;;;;;;;7.28;2.15;;;25.30;96.60;;;;;;5054048;28;20462;-70
2021/06/20 08:24:20;;;;;;;9.57;2.38;;;25.20;97.10;;;;;;5069133;28;20037;-70
2021/06/20 08:26:46;;;;;;;4.40;1.60;;;25.10;97.30;;;;;;5054037;28;20037;-70
2021/06/20 08:29:14;;;;;;;5.53;1.83;;;25.10;97.30;;;;;;5068944;28;20059;-70
2021/06/20 08:31:40;;;;;;;7.38;2.00;;;25.40;97.20;;;;;;5053692;28;20124;-70
2021/06/20 08:34:07;;;;;;;2.70;1.48;;;25.50;96.80;;;;;;5053502;28;20116;-70
2021/06/20 08:36:37;;;;;;;8.45;1.67;;;25.50;96.60;;;;;;5069204;28;20040;-70
2021/06/20 08:39:05;;;;;;;5.45;2.35;;;25.60;96.60;;;;;;5068541;28;20046;-69
2021/06/20 08:41:33;;;;;;;7.32;1.80;;;25.70;96.70;;;;;;5053659;28;20503;-69
2021/06/20 08:43:59;;;;;;;12.32;2.10;;;25.60;96.80;;;;;;5053232;28;20037;-70
2021/06/20 08:46:25;;;;;;;6.00;1.70;;;25.40;96.90;;;;;;5069281;28;20113;-69
2021/06/20 08:48:51;;;;;;;5.60;1.80;;;25.70;96.90;;;;;;5053496;28;20068;-70
2021/06/20 08:51:18;;;;;;;3.85;1.88;;;25.80;97.20;;;;;;5053555;28;20037;-70
2021/06/20 08:53:43;;;;;;;4.72;2.03;;;25.90;96.40;;;;;;5052475;28;20037;-70
2021/06/20 08:56:09;;;;;;;7.20;1.75;;;25.90;96.20;;;;;;5053343;28;20478;-70
2021/06/20 08:58:35;;;;;;;5.05;1.90;;;25.60;97.00;;;;;;5053565;28;20043;-70
2021/06/20 09:01:05;;;;;;;3.28;1.75;;;25.50;97.60;;;;;;5053309;28;20063;-70
2021/06/20 09:03:57;;;;;;;5.00;2.07;;;25.60;97.40;;;;;;5068685;28;20465;-69
2021/06/20 09:06:24;;;;;;;6.72;2.00;;;25.40;97.70;;;;;;5052845;28;20044;-69
2021/06/20 09:08:57;;;;;;;5.28;2.13;;;25.70;96.60;;;;;;5051608;28;20524;-69
2021/06/20 09:11:35;;;;;;;9.23;1.88;;;25.60;96.60;;;;;;5067920;28;20397;-70
2021/06/20 09:14:12;;;;;;;3.28;1.50;;;25.70;96.40;;;;;;5051103;28;20075;-69
2021/06/20 09:16:54;;;;;;;11.30;2.53;;;25.90;96.40;;;;;;5067612;28;20029;-69
2021/06/20 09:19:34;;;;;;;4.97;1.80;;;25.60;96.40;;;;;;5052900;28;20428;-69
2021/06/20 09:22:06;;;;;;;6.13;2.22;;;25.70;96.60;;;;;;5052963;28;20029;-70
2021/06/20 09:24:32;;;;;;;7.75;2.08;;;25.80;96.40;;;;;;5053086;28;20047;-70
2021/06/20 09:27:00;;;;;;;3.38;1.73;;;25.80;96.10;;;;;;5068030;28;20033;-70
2021/06/20 09:29:38;;;;;;;5.22;1.58;;;25.80;95.80;;;;;;5052860;28;20071;-70
2021/06/20 09:32:08;;;;;;;5.63;2.10;;;25.90;95.30;;;;;;5052464;28;20049;-69
2021/06/20 09:34:46;;;;;;;6.40;1.63;;;25.80;95.60;;;;;;5052396;28;20044;-69
2021/06/20 09:37:13;;;;;;;4.75;1.85;;;25.80;95.40;;;;;;5067629;28;20052;-69
2021/06/20 09:39:39;;;;;;;5.65;2.00;;;25.70;95.70;;;;;;5051259;28;20032;-70
2021/06/20 09:42:10;;;;;;;4.63;1.83;;;25.50;95.20;;;;;;5052857;28;20036;-68
2021/06/20 09:44:57;;;;;;;5.03;1.65;;;25.50;95.60;;;;;;5052461;28;20025;-70
2021/06/20 09:47:26;;;;;;;5.35;1.95;;;25.40;96.10;;;;;;5051221;28;20072;-70
2021/06/20 09:49:55;;;;;;;7.03;1.85;;;25.40;96.00;;;;;;5067639;28;20504;-70
2021/06/20 09:52:34;;;;;;;6.88;2.17;;;25.30;96.00;;;;;;5052214;28;20398;-69
2021/06/20 09:55:10;;;;;;;2.83;1.58;;;25.20;96.40;;;;;;5066994;28;20450;-70
2021/06/20 09:57:44;;;;;;;8.88;2.40;;;25.30;96.80;;;;;;5052563;28;20033;-69
2021/06/20 10:00:14;;;;;;;5.10;2.22;;;25.40;97.00;;;;;;5067195;28;20037;-69
2021/06/20 10:02:41;;;;;;;6.50;2.15;;;25.50;97.00;;;;;;5067652;28;20068;-69
2021/06/20 10:05:10;;;;;;;6.35;2.28;;;25.40;97.20;;;;;;5067191;28;20033;-69
2021/06/20 10:07:36;;;;;;;3.97;2.10;;;25.20;97.40;;;;;;5067590;28;20078;-69
2021/06/20 10:10:07;;;;;;;6.88;2.17;;;25.30;97.70;;;;;;5067624;28;20076;-69
2021/06/20 10:12:34;;;;;;;9.20;1.88;;;25.20;97.60;;;;;;5051022;28;20029;-69
2021/06/20 10:15:03;;;;;;;7.35;3.15;;;25.10;98.20;;;;;;5052127;28;20028;-70
2021/06/20 10:17:40;;;;;;;8.70;1.92;;;25.00;98.50;;;;;;5050801;28;20029;-69
2021/06/20 10:20:10;;;;;;;4.97;2.30;;;25.00;98.30;;;;;;5067062;28;20040;-70
2021/06/20 10:22:43;;;;;;;5.78;2.20;;;25.00;99.00;;;;;;5052022;28;20541;-70
2021/06/20 10:25:34;;;;;;;5.28;2.22;;;25.00;98.80;;;;;;5051979;28;20052;-69
2021/06/20 10:28:15;;;;;;;10.70;3.03;;;25.00;98.90;;;;;;5054797;28;20037;-69
2021/06/20 10:30:45;;;;;;;8.00;2.42;;;25.00;99.00;;;;;;5071201;28;20094;-69
2021/06/20 10:33:16;;;;;;;8.52;2.78;;;25.00;98.90;;;;;;5070983;28;20029;-69
2021/06/20 10:35:44;;;;;;;10.82;2.28;;;25.20;98.80;;;;;;5054811;28;20494;-69
2021/06/20 10:38:38;;;;;;;7.00;2.30;;;25.40;98.40;;;;;;5055863;28;20039;-69
2021/06/20 10:41:21;;;;;;;6.60;1.60;;;25.50;98.70;;;;;;5055752;28;20048;-70
2021/06/20 10:44:01;;;;;;;3.67;1.88;;;25.80;97.80;;;;;;5069534;28;20363;-69
2021/06/20 10:46:29;;;;;;;4.93;1.75;;;26.30;97.30;;;;;;5056081;28;20064;-70
2021/06/20 10:48:55;;;;;;;5.03;1.85;;;26.50;96.00;;;;;;5055709;28;20116;-69
2021/06/20 10:51:23;;;;;;;6.53;1.73;;;26.60;95.80;;;;;;5055662;28;20557;-69
2021/06/20 10:53:50;;;;;;;3.85;1.80;;;26.40;95.70;;;;;;5055993;28;20021;-69
2021/06/20 10:56:26;;;;;;;3.80;1.98;;;26.50;95.90;;;;;;5055358;28;20032;-69
2021/06/20 10:58:55;;;;;;;5.85;1.70;;;26.50;95.70;;;;;;5056119;28;20103;-70
2021/06/20 11:01:39;;;;;;;4.45;1.90;;;26.50;96.10;;;;;;5055495;28;20043;-69
2021/06/20 11:04:05;;;;;;;6.25;1.80;;;26.30;95.50;;;;;;5055370;28;20485;-70
2021/06/20 11:06:31;;;;;;;5.53;2.08;;;26.70;95.50;;;;;;5070728;28;20041;-69
2021/06/20 11:09:08;;;;;;;5.25;2.15;;;26.70;95.70;;;;;;5055600;28;20116;-70
2021/06/20 11:11:48;;;;;;;7.82;2.75;;;26.30;95.50;;;;;;5055280;28;20108;-69
2021/06/20 11:14:14;;;;;;;5.87;2.00;;;26.30;95.40;;;;;;5055366;28;20078;-69
2021/06/20 11:16:40;;;;;;;6.30;2.47;;;26.30;95.70;;;;;;5055046;28;20041;-70
2021/06/20 11:19:22;;;;;;;4.80;2.13;;;26.30;95.80;;;;;;5070488;28;20032;-70
2021/06/20 11:21:47;;;;;;;3.30;1.60;;;26.20;95.90;;;;;;5069226;28;20029;-70
2021/06/20 11:24:19;;;;;;;4.03;1.88;;;26.20;95.10;;;;;;5055210;28;20029;-69
2021/06/20 11:27:01;;;;;;;4.30;1.33;;;26.50;94.70;;;;;;5053196;28;20485;-71
2021/06/20 11:29:56;;;;;;;4.60;1.60;;;27.00;94.30;;;;;;5054162;28;20056;-70
2021/06/20 11:32:24;;;;;;;8.70;1.70;;;26.90;94.90;;;;;;5054962;28;20052;-70
2021/06/20 11:35:02;;;;;;;5.63;1.88;;;27.20;94.20;;;;;;5070177;28;20034;-70
2021/06/20 11:37:30;;;;;;;5.03;1.75;;;27.10;93.90;;;;;;5053225;28;20367;-70
2021/06/20 11:40:02;;;;;;;7.75;1.90;;;27.30;93.50;;;;;;5070038;28;20095;-70
2021/06/20 11:42:30;;;;;;;5.25;1.77;;;27.30;93.90;;;;;;5069932;28;20068;-70
2021/06/20 11:45:07;;;;;;;4.63;1.60;;;27.70;93.30;;;;;;5053333;28;20037;-70
2021/06/20 11:47:45;;;;;;;4.68;2.00;;;27.50;93.30;;;;;;5069799;28;20029;-69
2021/06/20 11:50:15;;;;;;;4.10;1.67;;;28.10;92.70;;;;;;5054414;28;20025;-70
2021/06/20 11:53:06;;;;;;;;;;;28.00;93.20;;;;;;5053708;28;20055;-69
2021/06/20 11:55:43;;;;;;;11.75;5.43;;;28.00;93.10;;;;;;5054252;28;20067;-69
2021/06/20 11:58:14;;;;;;;4.63;1.92;;;28.40;93.50;;;;;;5053077;28;20036;-69
2021/06/20 12:00:44;;;;;;;3.40;1.40;;;28.70;92.20;;;;;;5054190;28;20488;-69
2021/06/20 12:03:20;;;;;;;4.40;1.70;;;29.00;91.50;;;;;;5052996;28;20389;-70
2021/06/20 12:05:59;;;;;;;7.97;1.80;;;28.90;91.60;;;;;;5069534;28;20283;-70
2021/06/20 12:08:26;;;;;;;7.35;2.10;;;29.00;92.20;;;;;;5054500;28;20124;-70
2021/06/20 12:10:53;;;;;;;6.00;2.03;;;28.80;91.30;;;;;;5069374;28;20524;-70
2021/06/20 12:13:19;;;;;;;6.10;1.60;;;29.10;91.50;;;;;;5069331;28;20633;-70
2021/06/20 12:15:45;;;;;;;6.47;1.52;;;29.20;91.30;;;;;;5053817;28;20033;-70
2021/06/20 12:18:14;;;;;;;5.60;1.60;;;29.40;91.10;;;;;;5053721;28;20386;-69
2021/06/20 12:20:46;;;;;;;3.95;1.60;;;29.60;90.60;;;;;;5053700;28;20477;-69
2021/06/20 12:23:34;;;;;;;7.70;2.17;;;29.30;90.30;;;;;;5053958;28;20093;-69
2021/06/20 12:26:01;;;;;;;4.18;1.60;;;29.20;90.60;;;;;;5053759;28;20024;-69
2021/06/20 12:28:27;;;;;;;3.92;1.90;;;29.60;90.10;;;;;;5069028;28;20443;-69
2021/06/20 12:30:55;;;;;;;7.30;1.88;;;29.40;90.60;;;;;;5053405;28;20049;-69
2021/06/20 12:33:24;;;;;;;10.18;2.83;;;29.60;90.30;;;;;;5069049;28;20037;-69
2021/06/20 12:36:00;;;;;;;9.15;2.70;;;29.70;90.00;;;;;;5053821;28;20040;-68
2021/06/20 12:38:29;;;;;;;8.25;3.15;;;29.60;90.20;;;;;;5053654;28;20033;-69
2021/06/20 12:40:56;;;;;;;8.23;1.98;;;29.80;89.30;;;;;;5068605;28;20036;-69
2021/06/20 12:43:24;;;;;;;5.93;2.17;;;29.80;90.30;;;;;;5053723;28;20036;-69
2021/06/20 12:46:05;;;;;;;5.53;1.63;;;30.00;89.10;;;;;;5053616;28;20129;-70
2021/06/20 12:48:40;;;;;;;9.98;2.58;;;29.70;89.80;;;;;;5052573;28;20093;-70
2021/06/20 12:51:09;;;;;;;5.90;2.25;;;30.10;89.20;;;;;;5053597;28;20021;-69